createdAt,value
2019-03-27T00:00:42.514Z,76.16
2019-03-27T00:01:42.528Z,76.16
2019-03-27T00:02:42.816Z,76.16
2019-03-27T00:03:42.563Z,76.35
2019-03-27T00:04:42.584Z,76.16
2019-03-27T00:05:42.863Z,76.16
2019-03-27T00:06:42.882Z,76.16
2019-03-27T00:07:42.636Z,75.96
2019-03-27T00:08:42.914Z,76.06
2019-03-27T00:09:42.669Z,76.54
2019-03-27T00:10:42.949Z,76.06
2019-03-27T00:11:42.707Z,76.16
2019-03-27T00:12:42.722Z,75.87
2019-03-27T00:13:43.001Z,76.44
2019-03-27T00:14:42.758Z,76.06
2019-03-27T00:15:42.773Z,76.44
2019-03-27T00:16:43.052Z,75.96
2019-03-27T00:17:43.073Z,75.96
2019-03-27T00:18:42.831Z,75.87
2019-03-27T00:19:43.105Z,76.06
2019-03-27T00:20:43.123Z,76.06
2019-03-27T00:21:42.880Z,75.96
2019-03-27T00:22:42.896Z,75.96
2019-03-27T00:23:42.915Z,76.16
2019-03-27T00:24:43.194Z,76.16
2019-03-27T00:25:42.951Z,75.78
2019-03-27T00:26:42.967Z,76.06
2019-03-27T00:27:42.986Z,76.16
2019-03-27T00:28:43.272Z,76.06
2019-03-27T00:29:43.280Z,76.16
2019-03-27T00:30:43.040Z,76.16
2019-03-27T00:31:43.060Z,76.16
2019-03-27T00:32:43.336Z,76.06
2019-03-27T00:33:43.095Z,75.96
2019-03-27T00:34:43.369Z,75.78
2019-03-27T00:35:43.133Z,75.78
2019-03-27T00:36:43.142Z,75.78
2019-03-27T00:37:43.158Z,75.68
2019-03-27T00:38:43.182Z,75.78
2019-03-27T00:39:43.454Z,75.68
2019-03-27T00:40:43.211Z,75.68
2019-03-27T00:41:43.493Z,75.68
2019-03-27T00:42:43.246Z,75.68
2019-03-27T00:43:43.269Z,75.68
2019-03-27T00:44:43.545Z,75.87
2019-03-27T00:45:43.560Z,75.96
2019-03-27T00:46:43.581Z,75.78
2019-03-27T00:47:43.337Z,75.78
2019-03-27T00:48:43.357Z,76.06
2019-03-27T00:49:43.370Z,75.78
2019-03-27T00:50:43.384Z,75.84
2019-03-27T00:51:43.669Z,75.96
2019-03-27T00:52:43.422Z,75.78
2019-03-27T00:53:43.698Z,75.87
2019-03-27T00:54:43.716Z,75.87
2019-03-27T00:55:43.478Z,75.93
2019-03-27T00:56:43.491Z,75.87
2019-03-27T00:57:43.507Z,75.74
2019-03-27T00:58:43.525Z,76.06
2019-03-27T00:59:43.806Z,75.84
2019-03-27T01:00:43.560Z,75.87
2019-03-27T01:01:43.576Z,75.84
2019-03-27T01:02:43.593Z,76.06
2019-03-27T01:03:43.609Z,76.03
2019-03-27T01:04:43.894Z,76.03
2019-03-27T01:05:43.905Z,75.74
2019-03-27T01:06:43.948Z,75.74
2019-03-27T01:07:43.946Z,75.74
2019-03-27T01:08:43.702Z,75.93
2019-03-27T01:09:43.716Z,76.03
2019-03-27T01:10:43.998Z,75.93
2019-03-27T01:11:43.750Z,76.03
2019-03-27T01:12:43.769Z,76.03
2019-03-27T01:13:43.785Z,75.93
2019-03-27T01:14:43.803Z,75.93
2019-03-27T01:15:43.819Z,76.03
2019-03-27T01:16:44.086Z,75.17
2019-03-27T01:17:43.855Z,75.93
2019-03-27T01:18:44.136Z,75.93
2019-03-27T01:19:43.891Z,75.93
2019-03-27T01:20:44.178Z,75.93
2019-03-27T01:21:43.925Z,76.03
2019-03-27T01:22:43.941Z,75.93
2019-03-27T01:23:44.220Z,75.45
2019-03-27T01:24:43.974Z,76.03
2019-03-27T01:25:44.258Z,76.03
2019-03-27T01:26:44.009Z,75.93
2019-03-27T01:27:44.035Z,75.26
2019-03-27T01:28:44.310Z,76.03
2019-03-27T01:29:44.400Z,75.93
2019-03-27T01:30:44.341Z,75.36
2019-03-27T01:31:44.094Z,75.36
2019-03-27T01:32:44.373Z,75.17
2019-03-27T01:33:44.392Z,75.93
2019-03-27T01:34:44.410Z,75.36
2019-03-27T01:35:44.166Z,75.36
2019-03-27T01:36:44.453Z,75.36
2019-03-27T01:37:44.461Z,75.45
2019-03-27T01:38:44.481Z,75.26
2019-03-27T01:39:44.496Z,75.36
2019-03-27T01:40:44.515Z,75.45
2019-03-27T01:41:44.268Z,75.93
2019-03-27T01:42:44.551Z,75.45
2019-03-27T01:43:44.302Z,75.36
2019-03-27T01:44:44.321Z,75.36
2019-03-27T01:45:55.456Z,75.17
2019-03-27T01:46:44.620Z,75.36
2019-03-27T01:47:44.639Z,75.45
2019-03-27T01:48:44.650Z,75.36
2019-03-27T01:49:44.686Z,75.45
2019-03-27T01:50:44.684Z,75.36
2019-03-27T01:51:44.448Z,75.55
2019-03-27T01:52:44.723Z,75.45
2019-03-27T01:53:44.740Z,75.45
2019-03-27T01:54:44.758Z,75.55
2019-03-27T01:55:44.782Z,75.45
2019-03-27T01:56:44.789Z,75.45
2019-03-27T01:57:44.816Z,75.45
2019-03-27T01:58:44.841Z,75.36
2019-03-27T01:59:44.849Z,76.12
2019-03-27T02:00:44.861Z,75.93
2019-03-27T02:01:44.875Z,76.03
2019-03-27T02:02:44.901Z,75.93
2019-03-27T02:03:44.647Z,75.45
2019-03-27T02:04:44.927Z,75.45
2019-03-27T02:05:44.687Z,75.64
2019-03-27T02:06:44.962Z,75.93
2019-03-27T02:07:44.987Z,75.93
2019-03-27T02:08:45.015Z,75.93
2019-03-27T02:09:45.017Z,75.93
2019-03-27T02:10:44.780Z,75.93
2019-03-27T02:11:45.049Z,75.93
2019-03-27T02:12:45.067Z,76.03
2019-03-27T02:13:45.082Z,76.03
2019-03-27T02:14:44.839Z,76.03
2019-03-27T02:15:45.144Z,76.03
2019-03-27T02:16:45.134Z,75.74
2019-03-27T02:17:45.150Z,75.93
2019-03-27T02:18:45.173Z,76.03
2019-03-27T02:19:45.184Z,75.74
2019-03-27T02:20:45.204Z,75.93
2019-03-27T02:21:45.220Z,75.93
2019-03-27T02:22:45.237Z,75.93
2019-03-27T02:23:45.257Z,75.84
2019-03-27T02:24:45.272Z,75.84
2019-03-27T02:25:45.296Z,75.74
2019-03-27T02:26:45.310Z,75.84
2019-03-27T02:27:45.327Z,76.03
2019-03-27T02:28:45.342Z,75.93
2019-03-27T02:29:45.097Z,75.64
2019-03-27T02:30:45.119Z,75.74
2019-03-27T02:31:45.134Z,75.64
2019-03-27T02:32:45.416Z,76.31
2019-03-27T02:33:45.431Z,75.93
2019-03-27T02:34:45.184Z,76.03
2019-03-27T02:35:45.469Z,76.31
2019-03-27T02:36:45.502Z,76.03
2019-03-27T02:37:45.240Z,76.12
2019-03-27T02:38:45.523Z,76.12
2019-03-27T02:39:45.546Z,76.12
2019-03-27T02:40:45.422Z,75.74
2019-03-27T02:41:45.309Z,76.03
2019-03-27T02:42:45.326Z,76.03
2019-03-27T02:43:45.625Z,76.03
2019-03-27T02:44:45.360Z,75.93
2019-03-27T02:45:45.380Z,75.93
2019-03-27T02:46:45.397Z,75.93
2019-03-27T02:47:45.408Z,75.93
2019-03-27T02:48:45.434Z,75.93
2019-03-27T02:49:45.708Z,75.84
2019-03-27T02:50:45.479Z,75.93
2019-03-27T02:51:45.751Z,76.31
2019-03-27T02:52:45.501Z,75.84
2019-03-27T02:53:45.511Z,76.03
2019-03-27T02:54:45.795Z,76.03
2019-03-27T02:55:45.547Z,76.4
2019-03-27T02:56:45.576Z,76.31
2019-03-27T02:57:45.644Z,76.03
2019-03-27T02:58:45.620Z,76.4
2019-03-27T02:59:45.900Z,76.12
2019-03-27T03:00:45.636Z,76.31
2019-03-27T03:01:50.007Z,76.12
2019-03-27T03:02:45.680Z,76.31
2019-03-27T03:03:45.685Z,76.03
2019-03-27T03:04:45.709Z,76.12
2019-03-27T03:05:45.984Z,76.21
2019-03-27T03:06:46.000Z,76.12
2019-03-27T03:07:46.028Z,76.12
2019-03-27T03:08:45.783Z,76.5
2019-03-27T03:09:46.053Z,76.21
2019-03-27T03:10:48.175Z,76.4
2019-03-27T03:11:46.117Z,76.4
2019-03-27T03:12:45.847Z,76.59
2019-03-27T03:13:46.140Z,76.59
2019-03-27T03:14:45.881Z,76.31
2019-03-27T03:15:45.893Z,76.31
2019-03-27T03:16:45.910Z,76.03
2019-03-27T03:17:45.931Z,76.12
2019-03-27T03:18:45.946Z,76.12
2019-03-27T03:19:46.236Z,76.69
2019-03-27T03:20:45.981Z,76.5
2019-03-27T03:21:46.000Z,76.5
2019-03-27T03:22:46.287Z,76.5
2019-03-27T03:23:46.298Z,76.5
2019-03-27T03:24:46.316Z,76.5
2019-03-27T03:25:46.337Z,76.59
2019-03-27T03:26:50.430Z,76.4
2019-03-27T03:27:46.462Z,76.59
2019-03-27T03:28:46.402Z,76.69
2019-03-27T03:29:46.136Z,76.69
2019-03-27T03:30:46.172Z,76.5
2019-03-27T03:31:46.224Z,76.69
2019-03-27T03:32:46.459Z,76.69
2019-03-27T03:33:46.213Z,76.88
2019-03-27T03:34:46.251Z,76.97
2019-03-27T03:35:46.499Z,76.69
2019-03-27T03:36:46.526Z,76.69
2019-03-27T03:37:46.538Z,76.97
2019-03-27T03:38:46.582Z,76.78
2019-03-27T03:39:46.651Z,76.88
2019-03-27T03:40:46.595Z,76.78
2019-03-27T03:41:46.344Z,76.88
2019-03-27T03:42:46.625Z,76.69
2019-03-27T03:43:46.377Z,76.97
2019-03-27T03:44:46.405Z,76.5
2019-03-27T03:45:46.677Z,76.5
2019-03-27T03:47:02.001Z,76.5
2019-03-27T03:47:46.445Z,76.5
2019-03-27T03:48:46.465Z,76.5
2019-03-27T03:49:46.755Z,76.5
2019-03-27T03:50:46.784Z,76.5
2019-03-27T03:51:46.787Z,76.59
2019-03-27T03:52:48.232Z,76.59
2019-03-27T03:53:46.559Z,76.69
2019-03-27T03:54:46.847Z,76.88
2019-03-27T03:55:46.596Z,76.97
2019-03-27T03:56:46.610Z,77.07
2019-03-27T03:57:46.632Z,76.59
2019-03-27T03:58:46.645Z,77.07
2019-03-27T03:59:46.655Z,77.07
2019-03-27T04:00:46.936Z,77.17
2019-03-27T04:01:46.704Z,76.69
2019-03-27T04:02:46.706Z,76.69
2019-03-27T04:03:46.729Z,77.07
2019-03-27T04:04:47.010Z,76.69
2019-03-27T04:05:46.859Z,76.97
2019-03-27T04:06:47.041Z,77.17
2019-03-27T04:07:46.812Z,77.07
2019-03-27T04:08:47.106Z,77.17
2019-03-27T04:09:47.095Z,77.17
2019-03-27T04:10:47.210Z,77.07
2019-03-27T04:11:46.882Z,77.07
2019-03-27T04:12:47.145Z,77.07
2019-03-27T04:13:47.174Z,77.07
2019-03-27T04:14:47.185Z,76.88
2019-03-27T04:15:47.208Z,76.97
2019-03-27T04:16:47.324Z,76.97
2019-03-27T04:17:46.990Z,77.36
2019-03-27T04:18:46.991Z,77.36
2019-03-27T04:19:47.006Z,76.82
2019-03-27T04:20:47.022Z,77.17
2019-03-27T04:21:47.340Z,76.78
2019-03-27T04:22:47.064Z,76.97
2019-03-27T04:23:47.338Z,77.07
2019-03-27T04:24:47.357Z,76.88
2019-03-27T04:26:11.512Z,77.07
2019-03-27T04:26:47.130Z,76.88
2019-03-27T04:27:47.143Z,77.17
2019-03-27T04:28:47.157Z,77.17
2019-03-27T04:29:47.447Z,77.01
2019-03-27T04:30:47.458Z,77.17
2019-03-27T04:31:47.220Z,77.07
2019-03-27T04:32:47.493Z,76.88
2019-03-27T04:33:47.247Z,77.07
2019-03-27T04:34:49.547Z,77.07
2019-03-27T04:35:47.289Z,77.17
2019-03-27T04:36:47.561Z,76.92
2019-03-27T04:37:47.584Z,77.17
2019-03-27T04:38:47.596Z,76.88
2019-03-27T04:39:47.351Z,77.17
2019-03-27T04:40:47.367Z,77.17
2019-03-27T04:41:47.392Z,76.97
2019-03-27T04:42:47.403Z,77.07
2019-03-27T04:43:47.420Z,76.97
2019-03-27T04:44:47.704Z,76.97
2019-03-27T04:45:47.801Z,77.11
2019-03-27T04:46:47.471Z,77.07
2019-03-27T04:47:47.488Z,76.88
2019-03-27T04:48:47.508Z,77.07
2019-03-27T04:49:47.525Z,76.88
2019-03-27T04:50:47.808Z,77.17
2019-03-27T04:51:47.823Z,76.97
2019-03-27T04:52:47.838Z,76.97
2019-03-27T04:53:47.853Z,77.01
2019-03-27T04:54:47.873Z,76.59
2019-03-27T04:55:47.629Z,76.69
2019-03-27T04:56:47.646Z,76.92
2019-03-27T04:57:47.665Z,76.92
2019-03-27T04:58:47.682Z,76.92
2019-03-27T04:59:47.695Z,76.88
2019-03-27T05:00:47.977Z,77.17
2019-03-27T05:01:47.994Z,77.01
2019-03-27T05:02:47.751Z,76.97
2019-03-27T05:03:47.769Z,76.88
2019-03-27T05:04:47.787Z,77.11
2019-03-27T05:05:47.811Z,76.88
2019-03-27T05:06:47.832Z,76.88
2019-03-27T05:07:47.844Z,76.97
2019-03-27T05:08:48.121Z,76.97
2019-03-27T05:09:48.133Z,77.01
2019-03-27T05:10:48.150Z,76.69
2019-03-27T05:11:48.170Z,76.97
2019-03-27T05:12:48.192Z,76.78
2019-03-27T05:13:48.211Z,77.01
2019-03-27T05:14:47.957Z,76.78
2019-03-27T05:15:47.975Z,76.78
2019-03-27T05:16:47.992Z,76.69
2019-03-27T05:17:48.869Z,76.78
2019-03-27T05:18:48.026Z,76.73
2019-03-27T05:19:48.048Z,76.78
2019-03-27T05:20:48.328Z,76.88
2019-03-27T05:21:48.081Z,76.97
2019-03-27T05:22:48.363Z,76.78
2019-03-27T05:23:48.377Z,76.82
2019-03-27T05:24:48.400Z,77.11
2019-03-27T05:25:48.418Z,76.78
2019-03-27T05:26:48.431Z,76.88
2019-03-27T05:27:48.446Z,77.01
2019-03-27T05:28:48.200Z,77.01
2019-03-27T05:29:48.217Z,76.78
2019-03-27T05:30:48.234Z,77.11
2019-03-27T05:31:48.250Z,76.54
2019-03-27T05:32:48.269Z,77.11
2019-03-27T05:33:48.546Z,76.69
2019-03-27T05:34:48.305Z,77.11
2019-03-27T05:35:48.320Z,76.82
2019-03-27T05:36:48.601Z,76.92
2019-03-27T05:37:48.386Z,77.2
2019-03-27T05:38:48.641Z,76.82
2019-03-27T05:39:48.651Z,76.69
2019-03-27T05:40:48.503Z,76.82
2019-03-27T05:41:48.424Z,77.49
2019-03-27T05:43:02.173Z,76.92
2019-03-27T05:43:48.463Z,77.36
2019-03-27T05:44:48.477Z,77.39
2019-03-27T05:45:48.756Z,77.49
2019-03-27T05:46:48.778Z,77.49
2019-03-27T05:48:01.875Z,77.49
2019-03-27T05:48:48.808Z,77.55
2019-03-27T05:49:48.577Z,77.39
2019-03-27T05:50:48.583Z,77.39
2019-03-27T05:51:48.601Z,77.2
2019-03-27T05:52:48.616Z,77.11
2019-03-27T05:53:48.634Z,77.07
2019-03-27T05:54:48.913Z,77.49
2019-03-27T05:55:48.672Z,76.82
2019-03-27T05:56:48.948Z,77.39
2019-03-27T05:57:48.968Z,76.82
2019-03-27T05:58:48.986Z,77.11
2019-03-27T05:59:49.000Z,76.63
2019-03-27T06:00:49.101Z,76.82
2019-03-27T06:01:48.775Z,76.82
2019-03-27T06:02:49.054Z,76.82
2019-03-27T06:03:48.810Z,77.49
2019-03-27T06:04:48.827Z,76.54
2019-03-27T06:05:48.845Z,76.82
2019-03-27T06:06:48.877Z,76.82
2019-03-27T06:07:48.965Z,76.82
2019-03-27T06:08:48.893Z,76.73
2019-03-27T06:09:48.919Z,77.39
2019-03-27T06:10:49.200Z,77.2
2019-03-27T06:11:48.946Z,76.63
2019-03-27T06:12:49.230Z,77.2
2019-03-27T06:13:48.981Z,76.82
2019-03-27T06:14:49.257Z,76.73
2019-03-27T06:15:49.289Z,76.54
2019-03-27T06:16:49.034Z,76.54
2019-03-27T06:17:49.318Z,76.92
2019-03-27T06:18:49.067Z,76.92
2019-03-27T06:19:49.086Z,76.92
2019-03-27T06:20:49.104Z,76.82
2019-03-27T06:21:49.117Z,76.73
2019-03-27T06:22:49.140Z,76.82
2019-03-27T06:23:49.153Z,76.92
2019-03-27T06:24:49.432Z,76.92
2019-03-27T06:25:49.453Z,77.01
2019-03-27T06:26:49.471Z,77.01
2019-03-27T06:27:49.485Z,77.11
2019-03-27T06:28:49.247Z,76.92
2019-03-27T06:29:49.260Z,77.01
2019-03-27T06:30:49.274Z,77.2
2019-03-27T06:31:49.556Z,77.2
2019-03-27T06:32:49.573Z,76.82
2019-03-27T06:33:49.592Z,77.11
2019-03-27T06:34:49.348Z,77.2
2019-03-27T06:35:49.364Z,76.82
2019-03-27T06:36:49.648Z,76.73
2019-03-27T06:37:49.396Z,76.54
2019-03-27T06:38:49.678Z,76.63
2019-03-27T06:39:49.697Z,76.63
2019-03-27T06:40:49.449Z,76.63
2019-03-27T06:41:49.469Z,76.63
2019-03-27T06:42:49.485Z,76.63
2019-03-27T06:43:49.765Z,76.63
2019-03-27T06:44:49.783Z,76.82
2019-03-27T06:45:49.537Z,76.73
2019-03-27T06:46:49.556Z,76.73
2019-03-27T06:47:49.585Z,77.01
2019-03-27T06:48:49.861Z,77.01
2019-03-27T06:49:49.609Z,76.63
2019-03-27T06:50:49.625Z,76.54
2019-03-27T06:51:49.643Z,76.54
2019-03-27T06:52:49.922Z,76.92
2019-03-27T06:53:49.940Z,76.63
2019-03-27T06:54:49.753Z,76.73
2019-03-27T06:55:49.717Z,76.73
2019-03-27T06:56:49.729Z,76.35
2019-03-27T06:57:49.749Z,76.54
2019-03-27T06:58:57.247Z,76.16
2019-03-27T06:59:49.785Z,76.63
2019-03-27T07:00:49.805Z,76.54
2019-03-27T07:01:50.080Z,76.54
2019-03-27T07:02:49.853Z,76.35
2019-03-27T07:03:49.855Z,76.54
2019-03-27T07:04:50.133Z,76.73
2019-03-27T07:05:50.153Z,76.54
2019-03-27T07:06:49.923Z,76.35
2019-03-27T07:07:49.929Z,76.54
2019-03-27T07:08:49.939Z,76.54
2019-03-27T07:09:50.221Z,76.54
2019-03-27T07:10:50.240Z,76.44
2019-03-27T07:11:49.995Z,76.54
2019-03-27T07:12:50.011Z,76.73
2019-03-27T07:13:50.290Z,76.44
2019-03-27T07:14:50.307Z,76.35
2019-03-27T07:15:50.064Z,76.54
2019-03-27T07:16:50.078Z,76.25
2019-03-27T07:17:50.363Z,76.54
2019-03-27T07:18:50.376Z,76.92
2019-03-27T07:19:50.397Z,77.01
2019-03-27T07:20:50.150Z,77.01
2019-03-27T07:21:50.167Z,76.92
2019-03-27T07:22:50.447Z,76.63
2019-03-27T07:23:50.203Z,76.73
2019-03-27T07:24:50.484Z,76.92
2019-03-27T07:25:50.510Z,76.92
2019-03-27T07:26:50.522Z,76.92
2019-03-27T07:27:50.274Z,76.92
2019-03-27T07:28:50.294Z,76.73
2019-03-27T07:29:50.590Z,76.63
2019-03-27T07:30:50.335Z,77.01
2019-03-27T07:31:50.341Z,76.73
2019-03-27T07:32:50.637Z,76.73
2019-03-27T07:33:50.726Z,76.63
2019-03-27T07:34:50.658Z,77.01
2019-03-27T07:35:50.415Z,76.73
2019-03-27T07:36:50.430Z,76.73
2019-03-27T07:37:50.449Z,76.82
2019-03-27T07:38:50.725Z,76.54
2019-03-27T07:39:50.484Z,76.44
2019-03-27T07:40:50.501Z,76.54
2019-03-27T07:41:50.782Z,76.73
2019-03-27T07:42:50.800Z,76.82
2019-03-27T07:43:50.550Z,76.82
2019-03-27T07:44:50.572Z,76.82
2019-03-27T07:45:50.852Z,76.54
2019-03-27T07:46:50.603Z,76.44
2019-03-27T07:47:50.628Z,76.54
2019-03-27T07:48:56.522Z,76.35
2019-03-27T07:49:50.922Z,76.06
2019-03-27T07:50:50.676Z,76.54
2019-03-27T07:51:50.960Z,76.35
2019-03-27T07:52:50.971Z,76.35
2019-03-27T07:53:50.728Z,76.44
2019-03-27T07:54:50.753Z,76.54
2019-03-27T07:55:51.032Z,76.44
2019-03-27T07:56:50.781Z,76.35
2019-03-27T07:57:51.063Z,76.54
2019-03-27T07:58:51.078Z,76.35
2019-03-27T07:59:50.835Z,76.44
2019-03-27T08:00:51.125Z,76.54
2019-03-27T08:01:50.868Z,76.54
2019-03-27T08:02:51.148Z,76.06
2019-03-27T08:03:50.907Z,76.54
2019-03-27T08:04:50.929Z,76.48
2019-03-27T08:05:50.945Z,76.44
2019-03-27T08:06:51.222Z,76.48
2019-03-27T08:07:51.237Z,76.54
2019-03-27T08:08:51.014Z,76.29
2019-03-27T08:09:51.010Z,76.2
2019-03-27T08:10:51.028Z,76.39
2019-03-27T08:11:51.045Z,76.39
2019-03-27T08:12:51.065Z,76.39
2019-03-27T08:13:51.083Z,76.2
2019-03-27T08:14:51.360Z,76.39
2019-03-27T08:15:51.380Z,76.48
2019-03-27T08:16:51.134Z,76.2
2019-03-27T08:17:51.156Z,76.39
2019-03-27T08:18:51.433Z,76.29
2019-03-27T08:19:51.189Z,76.39
2019-03-27T08:20:51.468Z,76.29
2019-03-27T08:21:51.490Z,76.39
2019-03-27T08:22:51.505Z,76.1
2019-03-27T08:23:51.260Z,76.2
2019-03-27T08:24:51.537Z,76.2
2019-03-27T08:25:51.555Z,76.39
2019-03-27T08:26:51.572Z,76.39
2019-03-27T08:27:51.595Z,76.1
2019-03-27T08:28:51.349Z,76.39
2019-03-27T08:29:51.628Z,76.2
2019-03-27T08:30:51.648Z,76.1
2019-03-27T08:31:51.664Z,76.1
2019-03-27T08:32:51.420Z,76.48
2019-03-27T08:33:51.702Z,75.91
2019-03-27T08:34:51.718Z,76.01
2019-03-27T08:35:51.473Z,75.91
2019-03-27T08:36:51.768Z,76.2
2019-03-27T08:37:51.506Z,76.2
2019-03-27T08:38:51.789Z,76.2
2019-03-27T08:39:51.549Z,76.01
2019-03-27T08:40:51.828Z,75.72
2019-03-27T08:41:51.846Z,76.29
2019-03-27T08:42:51.614Z,76.01
2019-03-27T08:43:51.617Z,75.72
2019-03-27T08:44:51.899Z,75.72
2019-03-27T08:45:51.653Z,75.72
2019-03-27T08:46:51.670Z,75.91
2019-03-27T08:47:51.979Z,75.72
2019-03-27T08:48:51.715Z,75.81
2019-03-27T08:49:51.724Z,76.2
2019-03-27T08:50:51.746Z,76.01
2019-03-27T08:51:51.760Z,76.1
2019-03-27T08:52:52.037Z,75.91
2019-03-27T08:53:51.793Z,76.29
2019-03-27T08:54:51.809Z,76.01
2019-03-27T08:55:52.103Z,76.01
2019-03-27T08:56:51.847Z,75.91
2019-03-27T08:57:51.866Z,76.1
2019-03-27T08:58:52.146Z,76.1
2019-03-27T08:59:52.162Z,76.2
2019-03-27T09:00:51.934Z,76.1
2019-03-27T09:01:52.202Z,76.2
2019-03-27T09:02:52.223Z,75.62
2019-03-27T09:03:52.236Z,76.2
2019-03-27T09:04:51.993Z,76.1
2019-03-27T09:05:52.280Z,76.1
2019-03-27T09:06:52.034Z,76.01
2019-03-27T09:07:52.046Z,75.72
2019-03-27T09:08:52.065Z,75.72
2019-03-27T09:09:52.344Z,75.81
2019-03-27T09:10:52.417Z,76.39
2019-03-27T09:11:52.119Z,75.81
2019-03-27T09:12:52.396Z,76.2
2019-03-27T09:13:52.418Z,76.01
2019-03-27T09:14:52.438Z,75.81
2019-03-27T09:15:52.192Z,76.01
2019-03-27T09:16:52.475Z,75.81
2019-03-27T09:17:52.489Z,76.01
2019-03-27T09:18:52.510Z,75.81
2019-03-27T09:19:52.261Z,76.01
2019-03-27T09:20:52.542Z,76.01
2019-03-27T09:21:52.307Z,75.62
2019-03-27T09:22:52.580Z,76.01
2019-03-27T09:23:52.346Z,76.01
2019-03-27T09:24:52.354Z,76.01
2019-03-27T09:25:52.372Z,75.43
2019-03-27T09:26:52.653Z,75.72
2019-03-27T09:27:52.672Z,75.53
2019-03-27T09:28:52.684Z,75.09
2019-03-27T09:29:52.707Z,75.57
2019-03-27T09:30:52.463Z,75.76
2019-03-27T09:31:52.484Z,74.99
2019-03-27T09:32:52.502Z,74.99
2019-03-27T09:33:52.516Z,75.09
2019-03-27T09:34:52.537Z,74.9
2019-03-27T09:35:52.607Z,74.99
2019-03-27T09:36:52.838Z,74.99
2019-03-27T09:37:52.850Z,75.19
2019-03-27T09:38:52.868Z,74.9
2019-03-27T09:39:52.887Z,74.71
2019-03-27T09:40:52.643Z,74.71
2019-03-27T09:41:52.924Z,74.8
2019-03-27T09:42:52.940Z,74.71
2019-03-27T09:43:52.966Z,74.8
2019-03-27T09:44:52.977Z,74.52
2019-03-27T09:45:52.994Z,74.52
2019-03-27T09:46:52.756Z,74.9
2019-03-27T09:47:52.783Z,74.33
2019-03-27T09:48:53.050Z,74.9
2019-03-27T09:49:52.809Z,74.8
2019-03-27T09:50:52.828Z,74.33
2019-03-27T09:51:52.845Z,74.33
2019-03-27T09:52:52.867Z,74.14
2019-03-27T09:53:55.391Z,73.95
2019-03-27T09:54:53.161Z,74.33
2019-03-27T09:55:53.178Z,74.14
2019-03-27T09:56:53.196Z,74.33
2019-03-27T09:57:53.213Z,74.43
2019-03-27T09:58:53.025Z,74.43
2019-03-27T09:59:52.990Z,74.52
2019-03-27T10:00:53.273Z,74.33
2019-03-27T10:01:53.291Z,74.52
2019-03-27T10:02:53.306Z,74.04
2019-03-27T10:03:53.062Z,74.04
2019-03-27T10:04:55.770Z,73.95
2019-03-27T10:05:53.363Z,74.14
2019-03-27T10:06:53.120Z,74.04
2019-03-27T10:07:53.138Z,74.04
2019-03-27T10:08:53.418Z,73.89
2019-03-27T10:09:53.175Z,74.04
2019-03-27T10:10:53.193Z,74.37
2019-03-27T10:11:53.210Z,73.76
2019-03-27T10:12:53.493Z,73.7
2019-03-27T10:13:53.509Z,73.89
2019-03-27T10:14:53.271Z,73.8
2019-03-27T10:15:53.284Z,74.08
2019-03-27T10:16:53.574Z,73.89
2019-03-27T10:17:53.323Z,73.99
2019-03-27T10:18:53.347Z,73.99
2019-03-27T10:20:05.549Z,74.08
2019-03-27T10:20:53.454Z,73.61
2019-03-27T10:21:53.668Z,73.89
2019-03-27T10:22:53.678Z,73.89
2019-03-27T10:23:53.436Z,73.32
2019-03-27T10:24:53.715Z,73.51
2019-03-27T10:25:53.473Z,73.32
2019-03-27T10:26:53.491Z,73.03
2019-03-27T10:27:53.510Z,73.41
2019-03-27T10:28:53.531Z,73.41
2019-03-27T10:29:53.544Z,73.32
2019-03-27T10:30:53.563Z,73.41
2019-03-27T10:31:53.582Z,73.32
2019-03-27T10:32:53.864Z,73.41
2019-03-27T10:33:53.621Z,73.32
2019-03-27T10:34:53.637Z,73.41
2019-03-27T10:35:53.658Z,73.41
2019-03-27T10:36:53.943Z,73.13
2019-03-27T10:37:53.960Z,73.22
2019-03-27T10:38:53.981Z,73.22
2019-03-27T10:39:53.998Z,73.13
2019-03-27T10:40:53.753Z,72.94
2019-03-27T10:41:53.774Z,72.75
2019-03-27T10:42:53.793Z,72.85
2019-03-27T10:43:54.073Z,72.85
2019-03-27T10:44:53.829Z,72.94
2019-03-27T10:45:54.106Z,72.75
2019-03-27T10:46:54.131Z,72.85
2019-03-27T10:47:53.884Z,72.88
2019-03-27T10:48:55.625Z,72.65
2019-03-27T10:49:54.184Z,72.75
2019-03-27T10:50:53.939Z,72.5
2019-03-27T10:51:54.227Z,72.6
2019-03-27T10:52:54.274Z,72.69
2019-03-27T10:53:54.266Z,72.69
2019-03-27T10:54:54.016Z,72.69
2019-03-27T10:55:54.305Z,72.97
2019-03-27T10:56:54.053Z,73.07
2019-03-27T10:57:54.072Z,72.97
2019-03-27T10:58:54.087Z,72.5
2019-03-27T10:59:54.376Z,72.6
2019-03-27T11:00:54.392Z,72.31
2019-03-27T11:01:54.165Z,72.21
2019-03-27T11:02:54.171Z,72.31
2019-03-27T11:03:54.184Z,72.21
2019-03-27T11:04:54.205Z,72.41
2019-03-27T11:05:54.224Z,72.5
2019-03-27T11:06:54.502Z,72.31
2019-03-27T11:07:54.268Z,72.02
2019-03-27T11:08:54.541Z,72.41
2019-03-27T11:09:54.303Z,72.21
2019-03-27T11:10:54.419Z,72.12
2019-03-27T11:11:54.595Z,71.93
2019-03-27T11:12:54.618Z,72.31
2019-03-27T11:13:54.641Z,71.93
2019-03-27T11:14:54.731Z,72.21
2019-03-27T11:15:54.412Z,72.12
2019-03-27T11:16:54.438Z,72.41
2019-03-27T11:17:54.452Z,72.5
2019-03-27T11:18:54.472Z,72.12
2019-03-27T11:19:54.491Z,72.31
2019-03-27T11:20:54.773Z,72.21
2019-03-27T11:21:54.796Z,72.21
2019-03-27T11:22:54.807Z,72.02
2019-03-27T11:23:54.570Z,71.93
2019-03-27T11:24:54.851Z,71.83
2019-03-27T11:25:54.890Z,71.93
2019-03-27T11:26:54.888Z,71.93
2019-03-27T11:27:54.646Z,71.93
2019-03-27T11:28:54.661Z,72.12
2019-03-27T11:29:54.766Z,72.21
2019-03-27T11:30:54.705Z,71.36
2019-03-27T11:31:54.719Z,71.64
2019-03-27T11:32:55.001Z,71.73
2019-03-27T11:33:54.759Z,72.02
2019-03-27T11:34:55.040Z,71.93
2019-03-27T11:35:55.059Z,71.93
2019-03-27T11:36:55.082Z,71.93
2019-03-27T11:37:55.101Z,72.21
2019-03-27T11:38:55.123Z,71.93
2019-03-27T11:39:55.138Z,72.12
2019-03-27T11:40:55.156Z,71.83
2019-03-27T11:41:55.177Z,72.12
2019-03-27T11:42:55.193Z,71.87
2019-03-27T11:43:57.663Z,71.68
2019-03-27T11:44:54.968Z,71.64
2019-03-27T11:45:55.259Z,71.83
2019-03-27T11:46:55.008Z,71.68
2019-03-27T11:47:55.291Z,71.55
2019-03-27T11:48:55.045Z,71.55
2019-03-27T11:49:55.063Z,71.73
2019-03-27T11:50:55.085Z,71.93
2019-03-27T11:51:55.106Z,71.93
2019-03-27T11:52:55.126Z,71.93
2019-03-27T11:53:55.144Z,71.83
2019-03-27T11:54:55.163Z,71.93
2019-03-27T11:55:55.178Z,72.21
2019-03-27T11:56:55.464Z,71.93
2019-03-27T11:57:55.217Z,72.31
2019-03-27T11:58:55.239Z,72.41
2019-03-27T11:59:56.861Z,72.02
2019-03-27T12:00:57.479Z,71.93
2019-03-27T12:01:55.570Z,72.02
2019-03-27T12:02:55.581Z,71.36
2019-03-27T12:03:55.335Z,71.87
2019-03-27T12:04:55.350Z,72.06
2019-03-27T12:05:55.433Z,72.25
2019-03-27T12:06:55.654Z,72.06
2019-03-27T12:07:55.675Z,72.06
2019-03-27T12:08:55.694Z,71.58
2019-03-27T12:09:55.714Z,71.58
2019-03-27T12:10:55.472Z,71.58
2019-03-27T12:11:55.752Z,71.96
2019-03-27T12:12:55.773Z,71.58
2019-03-27T12:13:55.530Z,71.68
2019-03-27T12:14:55.549Z,71.58
2019-03-27T12:15:55.568Z,71.87
2019-03-27T12:16:55.857Z,71.48
2019-03-27T12:17:55.870Z,71.39
2019-03-27T12:18:55.895Z,71.39
2019-03-27T12:19:55.910Z,71.58
2019-03-27T12:21:01.844Z,71.2
2019-03-27T12:21:57.179Z,71.01
2019-03-27T12:23:00.171Z,70.82
2019-03-27T12:23:55.728Z,70.82
2019-03-27T12:24:55.746Z,70.92
2019-03-27T12:25:57.738Z,70.63
2019-03-27T12:26:55.784Z,70.63
2019-03-27T12:27:55.805Z,70.63
2019-03-27T12:28:56.088Z,70.72
2019-03-27T12:29:56.112Z,70.82
2019-03-27T12:30:56.128Z,70.44
2019-03-27T12:31:55.887Z,70.44
2019-03-27T12:32:55.901Z,70.53
2019-03-27T12:33:55.920Z,70.67
2019-03-27T12:34:55.938Z,70.76
2019-03-27T12:35:56.226Z,70.25
2019-03-27T12:36:56.241Z,70.34
2019-03-27T12:37:56.026Z,70.95
2019-03-27T12:38:56.280Z,70.63
2019-03-27T12:39:56.036Z,70.95
2019-03-27T12:40:56.324Z,70.28
2019-03-27T12:41:56.075Z,70.44
2019-03-27T12:42:56.362Z,70.34
2019-03-27T12:43:56.377Z,70.57
2019-03-27T12:44:56.135Z,70.47
2019-03-27T12:45:56.168Z,70.57
2019-03-27T12:46:56.440Z,70.57
2019-03-27T12:47:56.456Z,70.47
2019-03-27T12:48:56.221Z,70.28
2019-03-27T12:49:56.501Z,70.44
2019-03-27T12:50:56.263Z,70.38
2019-03-27T12:51:56.276Z,70.57
2019-03-27T12:52:56.563Z,70.38
2019-03-27T12:53:56.576Z,70.47
2019-03-27T12:54:56.333Z,70